Time;durP1;ratioP1;P1;durP2;ratioP2;P2;SDS_P1;SDS_P2;PMS_P1;PMS_P2;Temp;Humidity;BMP_temperature;BMP_pressure;BME280_temperature;BME280_humidity;BME280_pressure;Samples;Min_cycle;Max_cycle;Signal;HPM_P1;HPM_P2
2023/04/08 00:01:28;;;;;;;91.38;43.85;;;5.60;99.90;;;;;;5039984;28;20019;-88
2023/04/08 00:03:54;;;;;;;73.22;37.53;;;5.60;99.90;;;;;;5038527;28;20024;-86
2023/04/08 00:06:19;;;;;;;91.60;41.90;;;5.60;99.90;;;;;;5051452;28;20074;-87
2023/04/08 00:08:45;;;;;;;84.28;39.50;;;5.60;99.90;;;;;;5050004;28;20029;-86
2023/04/08 00:11:11;;;;;;;89.05;42.88;;;5.60;99.90;;;;;;5018113;28;20060;-85
2023/04/08 00:13:36;;;;;;;84.97;38.67;;;5.60;99.90;;;;;;5034772;28;20116;-88
2023/04/08 00:16:02;;;;;;;70.75;34.33;;;5.60;99.90;;;;;;5034118;28;20017;-89
2023/04/08 00:18:28;;;;;;;77.95;36.42;;;5.60;99.90;;;;;;5036324;28;20025;-87
2023/04/08 00:20:56;;;;;;;65.90;34.28;;;5.60;99.90;;;;;;5055678;28;20178;-88
2023/04/08 00:23:21;;;;;;;86.10;39.20;;;5.60;99.90;;;;;;5057639;28;20027;-86
2023/04/08 00:25:47;;;;;;;77.78;35.83;;;5.50;99.90;;;;;;5053938;28;20108;-88
2023/04/08 00:28:13;;;;;;;85.20;39.58;;;5.60;99.90;;;;;;5025624;28;20071;-85
2023/04/08 00:30:39;;;;;;;86.22;42.38;;;5.50;99.90;;;;;;5028102;28;20048;-85
2023/04/08 00:33:05;;;;;;;72.70;37.33;;;5.50;99.90;;;;;;5030441;28;20033;-87
2023/04/08 00:35:30;;;;;;;88.10;41.17;;;5.50;99.90;;;;;;5047591;28;20451;-86
2023/04/08 00:37:56;;;;;;;59.90;32.17;;;5.60;99.90;;;;;;5042402;28;20025;-85
2023/04/08 00:40:22;;;;;;;61.42;33.00;;;5.60;99.90;;;;;;5019715;28;20099;-86
2023/04/08 00:42:47;;;;;;;68.78;36.88;;;5.50;99.90;;;;;;5054286;28;20508;-87
2023/04/08 00:45:13;;;;;;;89.57;42.00;;;5.50;99.90;;;;;;5026917;28;20021;-85
2023/04/08 00:47:42;;;;;;;77.32;37.17;;;5.50;99.90;;;;;;5034114;28;20121;-88
2023/04/08 00:50:11;;;;;;;73.30;37.05;;;5.60;99.90;;;;;;5045873;28;20428;-87
2023/04/08 00:52:37;;;;;;;97.55;42.53;;;5.50;99.90;;;;;;5020189;28;20032;-88
2023/04/08 00:55:03;;;;;;;115.72;48.25;;;5.50;99.90;;;;;;5053304;28;20029;-86
2023/04/08 00:57:29;;;;;;;98.38;45.25;;;5.50;99.90;;;;;;5035800;28;20390;-87
2023/04/08 00:59:55;;;;;;;79.28;39.38;;;5.50;99.90;;;;;;5053316;28;20032;-88
2023/04/08 01:02:35;;;;;;;83.68;41.63;;;5.50;99.90;;;;;;5043034;28;20363;-87
2023/04/08 01:05:07;;;;;;;97.45;44.70;;;5.60;99.90;;;;;;5036025;28;20031;-84
2023/04/08 01:07:37;;;;;;;86.32;43.30;;;5.60;99.90;;;;;;5053529;28;20490;-87
2023/04/08 01:10:14;;;;;;;92.00;44.28;;;5.70;99.90;;;;;;5044793;28;20033;-86
2023/04/08 01:12:47;;;;;;;82.00;43.85;;;5.60;99.90;;;;;;5066503;28;20036;-86
2023/04/08 01:15:13;;;;;;;86.18;46.72;;;5.60;99.90;;;;;;5049579;28;20021;-84
2023/04/08 01:17:40;;;;;;;101.30;56.50;;;5.60;99.90;;;;;;5044981;28;20021;-86
2023/04/08 01:20:08;;;;;;;101.30;59.05;;;5.70;99.90;;;;;;5021664;28;20052;-86
2023/04/08 01:23:00;;;;;;;96.60;52.33;;;5.60;99.90;;;;;;5042393;28;20057;-90
2023/04/08 01:25:31;;;;;;;61.75;37.28;;;5.70;99.90;;;;;;5048344;28;20075;-87
2023/04/08 01:27:58;;;;;;;71.70;39.92;;;5.70;99.90;;;;;;5045386;28;20031;-86
2023/04/08 01:30:25;;;;;;;72.05;42.35;;;5.70;99.90;;;;;;5023619;28;20041;-85
2023/04/08 01:32:54;;;;;;;73.85;41.17;;;5.70;99.90;;;;;;5026813;28;20375;-89
2023/04/08 01:35:20;;;;;;;70.75;40.28;;;5.70;99.90;;;;;;5027410;28;20382;-87
2023/04/08 01:37:49;;;;;;;75.97;40.17;;;5.80;99.90;;;;;;5019871;28;20056;-87
2023/04/08 01:40:17;;;;;;;77.10;42.10;;;5.70;99.90;;;;;;5026605;28;20479;-84
2023/04/08 01:42:45;;;;;;;73.45;38.50;;;5.70;99.90;;;;;;5034180;28;20021;-84
2023/04/08 01:45:12;;;;;;;75.50;40.15;;;5.70;99.90;;;;;;5028404;28;20045;-86
2023/04/08 01:47:38;;;;;;;69.25;39.53;;;5.70;99.90;;;;;;5037607;28;20067;-86
2023/04/08 01:50:06;;;;;;;68.32;38.30;;;5.70;99.90;;;;;;5045840;28;20042;-85
2023/04/08 01:52:34;;;;;;;70.97;39.58;;;5.70;99.90;;;;;;5022285;28;20026;-88
2023/04/08 01:55:00;;;;;;;75.75;37.47;;;5.70;99.90;;;;;;5034430;28;20021;-85
2023/04/08 01:57:34;;;;;;;68.50;38.80;;;5.80;99.90;;;;;;5032893;28;20040;-87
2023/04/08 02:00:03;;;;;;;67.15;36.58;;;5.70;99.90;;;;;;5035476;28;21627;-86
2023/04/08 02:02:29;;;;;;;66.45;36.42;;;5.70;99.90;;;;;;5036855;28;20017;-88
2023/04/08 02:04:58;;;;;;;67.15;37.38;;;5.70;99.90;;;;;;5043679;28;20029;-88
2023/04/08 02:07:23;;;;;;;68.30;36.88;;;5.70;99.90;;;;;;5027095;28;20029;-87
2023/04/08 02:09:50;;;;;;;93.57;47.30;;;5.60;99.90;;;;;;5024617;28;20399;-89
2023/04/08 02:12:16;;;;;;;88.65;45.08;;;5.60;99.90;;;;;;5031647;28;20467;-87
2023/04/08 02:14:42;;;;;;;78.55;41.30;;;5.70;99.90;;;;;;5032409;28;20017;-85
2023/04/08 02:17:18;;;;;;;93.00;47.28;;;5.60;99.90;;;;;;5030734;28;20432;-86
2023/04/08 02:19:55;;;;;;;86.50;44.47;;;5.60;99.90;;;;;;5025774;28;20021;-87
2023/04/08 02:22:39;;;;;;;79.38;40.95;;;5.70;99.90;;;;;;5047605;28;20356;-86
2023/04/08 02:25:10;;;;;;;73.18;40.15;;;5.70;99.90;;;;;;5024814;28;20032;-89
2023/04/08 02:27:38;;;;;;;79.07;40.95;;;5.70;99.90;;;;;;5020206;28;20026;-88
2023/04/08 02:30:05;;;;;;;72.57;38.20;;;5.70;99.90;;;;;;5027390;28;20033;-85
2023/04/08 02:32:36;;;;;;;82.30;41.22;;;5.70;99.90;;;;;;5040575;28;20025;-86
2023/04/08 02:35:03;;;;;;;85.10;45.10;;;5.70;99.90;;;;;;5029034;28;20044;-86
2023/04/08 02:37:30;;;;;;;74.03;40.95;;;5.60;99.90;;;;;;5035811;28;20082;-86
2023/04/08 02:39:56;;;;;;;76.55;40.33;;;5.60;99.90;;;;;;5039906;28;20448;-87
2023/04/08 02:42:22;;;;;;;73.95;39.50;;;5.60;99.90;;;;;;5023625;28;20021;-89
2023/04/08 02:44:48;;;;;;;69.15;37.13;;;5.60;99.90;;;;;;5026552;28;20032;-87
2023/04/08 02:47:13;;;;;;;70.05;37.38;;;5.60;99.90;;;;;;5045091;28;20032;-90
2023/04/08 02:49:39;;;;;;;137.80;57.75;;;5.60;99.90;;;;;;5075422;28;20049;-87
2023/04/08 02:52:05;;;;;;;101.57;46.90;;;5.50;99.90;;;;;;5038549;28;20025;-85
2023/04/08 02:54:31;;;;;;;71.25;38.28;;;5.50;99.90;;;;;;5039831;28;20025;-85
2023/04/08 02:56:56;;;;;;;82.00;41.83;;;5.50;99.90;;;;;;5031194;28;20116;-88
2023/04/08 02:59:22;;;;;;;97.07;46.90;;;5.50;99.90;;;;;;5037654;28;20071;-86
2023/04/08 03:01:48;;;;;;;111.32;51.53;;;5.50;99.90;;;;;;5055006;28;20036;-87
2023/04/08 03:04:13;;;;;;;92.95;45.38;;;5.60;99.90;;;;;;5025000;28;20028;-87
2023/04/08 03:06:39;;;;;;;90.18;44.88;;;5.60;99.90;;;;;;5056668;28;20033;-88
2023/04/08 03:09:05;;;;;;;83.30;41.05;;;5.60;99.90;;;;;;5055877;28;20100;-85
2023/04/08 03:11:31;;;;;;;75.45;39.70;;;5.60;99.90;;;;;;5055454;28;20033;-85
2023/04/08 03:13:57;;;;;;;84.38;41.25;;;5.60;99.90;;;;;;5051818;28;20031;-84
2023/04/08 03:16:23;;;;;;;76.00;42.17;;;5.60;99.90;;;;;;5045169;28;20025;-85
2023/04/08 03:18:52;;;;;;;78.28;39.88;;;5.60;99.90;;;;;;5023000;28;20052;-85
2023/04/08 03:21:18;;;;;;;84.43;43.00;;;5.50;99.90;;;;;;5046520;28;20036;-86
2023/04/08 03:23:44;;;;;;;88.45;43.40;;;5.50;99.90;;;;;;5025589;28;20025;-88
2023/04/08 03:26:10;;;;;;;96.68;48.50;;;5.50;99.90;;;;;;5033421;28;20028;-86
2023/04/08 03:28:36;;;;;;;100.70;49.33;;;5.50;99.90;;;;;;5036035;28;20018;-86
2023/04/08 03:31:03;;;;;;;102.55;50.15;;;5.50;99.90;;;;;;5045175;28;20025;-85
2023/04/08 03:33:29;;;;;;;96.45;49.47;;;5.50;99.90;;;;;;5048597;28;20035;-88
2023/04/08 03:35:55;;;;;;;89.93;48.03;;;5.60;99.90;;;;;;5048548;28;20116;-89
2023/04/08 03:38:21;;;;;;;96.65;49.78;;;5.60;99.90;;;;;;5029840;28;20017;-85
2023/04/08 03:40:46;;;;;;;86.72;46.30;;;5.60;99.90;;;;;;5030391;28;20113;-84
2023/04/08 03:43:13;;;;;;;82.43;43.42;;;5.70;99.90;;;;;;5046615;28;20025;-87
2023/04/08 03:45:39;;;;;;;85.03;43.90;;;5.60;99.90;;;;;;5026624;28;20021;-89
2023/04/08 03:48:05;;;;;;;94.55;47.05;;;5.70;99.90;;;;;;5045452;28;20036;-84
2023/04/08 03:50:34;;;;;;;133.98;60.42;;;5.60;99.90;;;;;;5021143;28;20038;-86
2023/04/08 03:53:00;;;;;;;187.32;84.97;;;5.60;99.90;;;;;;5031863;28;20029;-87
2023/04/08 03:55:26;;;;;;;143.60;64.40;;;5.70;99.90;;;;;;5021171;28;20043;-87
2023/04/08 03:57:51;;;;;;;106.60;50.60;;;5.70;99.90;;;;;;5026968;28;20021;-86
2023/04/08 04:00:17;;;;;;;134.50;61.38;;;5.70;99.90;;;;;;5024202;28;20025;-86
2023/04/08 04:02:43;;;;;;;155.32;63.47;;;5.70;99.90;;;;;;5022172;28;20029;-87
2023/04/08 04:05:08;;;;;;;131.52;62.42;;;5.70;99.90;;;;;;5028773;28;20021;-89
2023/04/08 04:07:39;;;;;;;124.78;56.13;;;5.70;99.90;;;;;;5022680;28;20017;-85
2023/04/08 04:10:06;;;;;;;96.10;49.07;;;5.70;99.90;;;;;;5021975;28;20036;-88
2023/04/08 04:12:31;;;;;;;94.20;45.83;;;5.70;99.90;;;;;;5023649;28;20021;-87
2023/04/08 04:14:57;;;;;;;99.68;47.70;;;5.70;99.90;;;;;;5021932;28;20452;-85
2023/04/08 04:17:23;;;;;;;98.00;46.95;;;5.70;99.90;;;;;;5025651;28;20083;-88
2023/04/08 04:19:48;;;;;;;98.55;50.92;;;5.70;99.90;;;;;;5022478;28;20095;-87
2023/04/08 04:22:14;;;;;;;100.20;51.05;;;5.70;99.90;;;;;;5020717;28;20033;-85
2023/04/08 04:24:40;;;;;;;109.22;53.80;;;5.80;99.90;;;;;;5020368;28;20021;-89
2023/04/08 04:27:09;;;;;;;109.13;52.80;;;5.70;99.90;;;;;;5024778;28;20021;-86
2023/04/08 04:29:37;;;;;;;104.22;52.10;;;5.80;99.90;;;;;;5025320;28;20032;-87
2023/04/08 04:32:03;;;;;;;100.00;50.17;;;5.80;99.90;;;;;;5029790;28;20031;-88
2023/04/08 04:34:29;;;;;;;93.15;46.47;;;5.80;99.90;;;;;;5032360;28;20096;-85
2023/04/08 04:36:57;;;;;;;100.55;46.78;;;5.80;99.90;;;;;;5022063;28;20104;-84
2023/04/08 04:39:23;;;;;;;97.75;48.05;;;5.80;99.90;;;;;;5025947;28;20026;-89
2023/04/08 04:41:49;;;;;;;102.38;48.40;;;5.90;99.90;;;;;;5024999;28;20033;-87
2023/04/08 04:44:15;;;;;;;110.15;47.53;;;5.80;99.90;;;;;;5023177;28;20033;-85
2023/04/08 04:46:41;;;;;;;95.13;46.63;;;5.90;99.90;;;;;;5020256;28;20071;-89
2023/04/08 04:49:06;;;;;;;102.57;48.58;;;5.90;99.90;;;;;;5031639;28;20034;-90
2023/04/08 04:51:35;;;;;;;108.32;52.40;;;5.90;99.90;;;;;;5052819;28;20072;-88
2023/04/08 04:54:01;;;;;;;94.20;49.08;;;5.90;99.90;;;;;;5039417;28;20486;-86
2023/04/08 04:56:26;;;;;;;103.90;51.55;;;6.00;99.90;;;;;;5068625;28;20029;-88
2023/04/08 04:58:52;;;;;;;93.97;47.58;;;6.00;99.90;;;;;;5044704;28;20070;-85
2023/04/08 05:01:20;;;;;;;82.95;45.38;;;5.90;99.90;;;;;;5036022;28;20028;-87
2023/04/08 05:03:46;;;;;;;112.57;55.95;;;6.00;99.90;;;;;;5053545;28;20025;-86
2023/04/08 05:06:12;;;;;;;102.70;52.45;;;5.90;99.90;;;;;;5054316;28;20062;-87
2023/04/08 05:08:38;;;;;;;104.00;53.92;;;5.90;99.90;;;;;;5053160;28;20021;-85
2023/04/08 05:11:07;;;;;;;117.72;61.28;;;5.90;99.90;;;;;;5048782;28;20091;-90
2023/04/08 05:13:33;;;;;;;116.47;56.38;;;5.90;99.90;;;;;;5039493;28;20029;-87
2023/04/08 05:15:59;;;;;;;118.57;55.35;;;5.90;99.90;;;;;;5033609;28;20478;-86
2023/04/08 05:18:25;;;;;;;131.00;58.30;;;6.00;99.90;;;;;;5032338;28;20028;-83
2023/04/08 05:20:50;;;;;;;118.80;53.72;;;6.00;99.90;;;;;;5024637;28;20060;-86
2023/04/08 05:23:16;;;;;;;123.30;55.80;;;6.00;99.90;;;;;;5045935;28;20071;-84
2023/04/08 05:25:42;;;;;;;110.38;55.03;;;6.10;99.90;;;;;;5038052;28;20017;-86
2023/04/08 05:28:11;;;;;;;108.45;55.35;;;6.10;99.90;;;;;;5025841;28;20032;-86
2023/04/08 05:30:36;;;;;;;112.30;56.22;;;6.10;99.90;;;;;;5031058;28;20033;-84
2023/04/08 05:33:03;;;;;;;92.68;49.80;;;6.10;99.90;;;;;;5050296;28;20066;-85
2023/04/08 05:35:28;;;;;;;95.78;49.83;;;6.10;99.90;;;;;;5046712;28;20139;-86
2023/04/08 05:37:54;;;;;;;100.93;50.22;;;6.10;99.90;;;;;;5037384;28;20116;-86
2023/04/08 05:40:23;;;;;;;94.18;50.28;;;6.20;99.90;;;;;;5032591;28;20035;-87
2023/04/08 05:42:48;;;;;;;93.60;47.33;;;6.20;99.90;;;;;;5030279;28;20021;-88
2023/04/08 05:45:15;;;;;;;84.32;45.95;;;6.30;99.90;;;;;;5024169;28;20022;-86
2023/04/08 05:47:40;;;;;;;83.93;44.20;;;6.30;99.90;;;;;;5026200;28;20061;-87
2023/04/08 05:50:07;;;;;;;97.75;49.88;;;6.20;99.90;;;;;;5023543;28;20473;-88
2023/04/08 05:52:32;;;;;;;104.05;53.42;;;6.30;99.90;;;;;;5046816;28;20020;-87
2023/04/08 05:54:58;;;;;;;133.95;60.67;;;6.30;99.90;;;;;;5040859;28;20025;-92
2023/04/08 05:57:24;;;;;;;113.43;56.42;;;6.40;99.90;;;;;;5025335;28;20664;-89
2023/04/08 05:59:53;;;;;;;102.70;51.95;;;6.40;99.90;;;;;;5033433;28;20029;-89
2023/04/08 06:02:18;;;;;;;105.70;53.00;;;6.40;99.90;;;;;;5033370;28;20029;-87
2023/04/08 06:04:50;;;;;;;102.38;51.97;;;6.50;99.90;;;;;;5030268;28;20021;-85
2023/04/08 06:07:16;;;;;;;104.35;56.35;;;6.70;99.90;;;;;;5039913;28;20037;-84
2023/04/08 06:09:41;;;;;;;108.20;54.15;;;6.70;99.90;;;;;;5028106;28;20021;-90
2023/04/08 06:12:10;;;;;;;114.30;53.75;;;6.90;99.90;;;;;;5029308;28;20060;-86
2023/04/08 06:14:36;;;;;;;110.88;57.58;;;6.90;99.90;;;;;;5034967;28;20028;-85
2023/04/08 06:17:02;;;;;;;95.55;50.17;;;7.10;99.90;;;;;;5030668;28;20025;-87
2023/04/08 06:19:27;;;;;;;87.82;47.92;;;7.10;99.90;;;;;;5035635;28;20375;-86
2023/04/08 06:21:57;;;;;;;103.03;50.97;;;7.10;99.90;;;;;;5050454;28;20400;-85
2023/04/08 06:24:28;;;;;;;101.68;51.58;;;7.20;99.90;;;;;;5047045;28;20028;-87
2023/04/08 06:26:55;;;;;;;102.65;52.17;;;7.20;99.90;;;;;;5025234;28;20103;-88
2023/04/08 06:29:21;;;;;;;103.22;51.92;;;7.30;99.90;;;;;;5045770;28;20025;-84
2023/04/08 06:31:50;;;;;;;90.70;48.13;;;7.40;99.90;;;;;;5038366;28;20036;-85
2023/04/08 06:34:18;;;;;;;86.03;45.50;;;7.50;99.90;;;;;;5057764;28;20032;-89
2023/04/08 06:36:44;;;;;;;85.72;46.40;;;7.50;99.90;;;;;;5039152;28;20056;-89
2023/04/08 06:39:10;;;;;;;110.43;54.28;;;7.70;99.90;;;;;;5046124;28;20057;-86
2023/04/08 06:41:38;;;;;;;133.75;67.47;;;7.90;99.90;;;;;;5028475;28;20036;-86
2023/04/08 06:44:03;;;;;;;117.53;60.47;;;8.00;99.90;;;;;;5029823;28;20025;-87
2023/04/08 06:46:29;;;;;;;100.63;50.72;;;8.10;99.90;;;;;;5025194;28;20040;-89
2023/04/08 06:48:55;;;;;;;90.72;45.47;;;8.00;99.90;;;;;;5038285;28;20028;-88
2023/04/08 06:51:30;;;;;;;106.78;51.03;;;8.10;99.90;;;;;;5033779;28;20032;-88
2023/04/08 06:53:56;;;;;;;80.80;44.92;;;8.20;99.90;;;;;;5040948;28;20062;-87
2023/04/08 06:56:22;;;;;;;86.00;44.80;;;8.30;99.90;;;;;;5030068;28;20110;-88
2023/04/08 06:58:50;;;;;;;79.50;42.72;;;8.30;99.90;;;;;;5026721;28;20021;-87
2023/04/08 07:01:16;;;;;;;72.38;40.35;;;8.50;99.90;;;;;;5031374;28;20028;-88
2023/04/08 07:03:42;;;;;;;77.20;41.70;;;8.60;99.90;;;;;;5042753;28;20448;-88
2023/04/08 07:06:08;;;;;;;69.10;39.38;;;8.60;99.90;;;;;;5022412;28;20180;-90
2023/04/08 07:08:35;;;;;;;70.47;35.85;;;8.80;99.90;;;;;;5024001;28;20025;-86
2023/04/08 07:11:04;;;;;;;72.97;39.30;;;8.90;99.90;;;;;;5045221;28;20033;-87
2023/04/08 07:13:32;;;;;;;75.72;38.85;;;9.00;99.90;;;;;;5025655;28;20025;-88
2023/04/08 07:16:01;;;;;;;70.97;39.95;;;8.90;99.90;;;;;;5017998;28;20033;-87
2023/04/08 07:18:36;;;;;;;81.40;42.42;;;8.90;99.90;;;;;;5017992;28;20027;-87
2023/04/08 07:21:02;;;;;;;136.18;59.85;;;9.10;99.90;;;;;;5036960;28;20028;-90
2023/04/08 07:23:32;;;;;;;108.70;50.60;;;9.20;99.90;;;;;;5022216;28;20028;-90
2023/04/08 07:26:04;;;;;;;67.47;37.58;;;9.30;99.90;;;;;;5030111;28;20021;-90
2023/04/08 07:28:41;;;;;;;81.97;40.63;;;9.20;99.90;;;;;;5024182;28;20017;-87
2023/04/08 07:31:17;;;;;;;56.78;30.95;;;9.20;99.90;;;;;;5027297;28;20123;-89
2023/04/08 07:33:46;;;;;;;48.40;27.17;;;9.20;99.90;;;;;;5032322;28;20017;-86
2023/04/08 07:36:41;;;;;;;84.72;43.20;;;9.30;99.90;;;;;;5029102;28;20111;-88
2023/04/08 07:39:07;;;;;;;74.00;38.50;;;9.50;99.90;;;;;;5036251;28;20041;-90
2023/04/08 07:41:33;;;;;;;85.20;46.50;;;9.60;99.90;;;;;;5020388;28;20363;-87
2023/04/08 07:44:07;;;;;;;79.93;39.13;;;9.80;99.90;;;;;;5025653;28;20033;-91
2023/04/08 07:50:20;;;;;;;54.20;28.63;;;10.50;96.30;;;;;;5048757;28;20843;-87
2023/04/08 07:52:55;;;;;;;67.00;36.95;;;10.70;95.00;;;;;;5019610;28;20128;-91
2023/04/08 07:55:30;;;;;;;54.22;31.40;;;11.00;94.40;;;;;;5027407;28;20406;-87
2023/04/08 07:58:49;;;;;;;36.72;22.67;;;11.70;93.40;;;;;;5032026;28;20340;-89
2023/04/08 08:01:50;;;;;;;38.70;21.33;;;12.10;86.80;;;;;;5015723;28;20048;-86
2023/04/08 08:04:16;;;;;;;25.00;16.98;;;12.70;82.90;;;;;;4951398;28;20101;-88
2023/04/08 08:14:30;;;;;;;;;;;;;;;;;;;;;
2023/04/08 08:17:46;;;;;;;41.92;24.67;;;12.10;78.10;;;;;;4928322;28;21476;-88
2023/04/08 08:20:12;;;;;;;38.65;23.40;;;11.60;76.80;;;;;;4944216;28;20038;-82
2023/04/08 08:22:41;;;;;;;41.80;23.80;;;11.70;79.80;;;;;;4965028;28;20039;-82
2023/04/08 08:25:08;;;;;;;37.88;23.63;;;11.60;80.60;;;;;;4946096;28;20026;-85
2023/04/08 08:27:35;;;;;;;33.20;20.67;;;12.10;81.50;;;;;;4967521;28;20039;-86
2023/04/08 08:30:02;;;;;;;35.05;21.65;;;12.40;74.90;;;;;;4964766;28;20042;-87
2023/04/08 08:32:41;;;;;;;35.72;19.65;;;12.50;75.40;;;;;;4962242;28;20090;-90
2023/04/08 08:35:18;;;;;;;49.58;26.25;;;12.40;73.50;;;;;;4969352;28;20039;-88
2023/04/08 08:37:44;;;;;;;42.75;29.50;;;11.70;74.70;;;;;;4952803;28;20027;-88
2023/04/08 08:40:10;;;;;;;37.53;22.02;;;11.60;77.10;;;;;;4959978;28;20071;-88
2023/04/08 08:42:38;;;;;;;27.23;18.35;;;11.40;75.40;;;;;;5030509;28;20029;-87
2023/04/08 08:45:04;;;;;;;38.90;22.92;;;11.10;76.20;;;;;;5023973;28;20063;-87
2023/04/08 08:47:30;;;;;;;43.83;25.73;;;11.10;78.10;;;;;;5021433;28;20029;-87
2023/04/08 08:49:56;;;;;;;34.17;21.20;;;11.00;79.50;;;;;;5027667;28;20527;-85
2023/04/08 08:52:23;;;;;;;37.67;20.83;;;10.90;81.60;;;;;;5027592;28;20067;-87
2023/04/08 08:54:57;;;;;;;39.05;20.67;;;10.80;79.50;;;;;;5034469;28;20444;-90
2023/04/08 08:57:23;;;;;;;37.72;21.85;;;10.80;79.10;;;;;;5022325;28;20025;-89
2023/04/08 08:59:49;;;;;;;38.08;21.05;;;10.60;81.50;;;;;;5037765;28;20178;-88
2023/04/08 09:02:27;;;;;;;38.80;20.85;;;10.20;80.60;;;;;;5053209;28;20071;-88
2023/04/08 09:04:57;;;;;;;50.40;31.02;;;10.40;83.20;;;;;;5027786;28;20456;-87
2023/04/08 09:07:26;;;;;;;38.88;21.13;;;10.30;84.20;;;;;;5017497;28;20025;-86
2023/04/08 09:09:53;;;;;;;36.67;22.02;;;10.30;83.40;;;;;;5044286;28;20074;-89
2023/04/08 09:12:19;;;;;;;131.10;52.22;;;10.20;85.20;;;;;;5046217;28;20025;-87
2023/04/08 09:14:45;;;;;;;51.63;26.52;;;10.30;86.00;;;;;;5049216;28;20071;-88
2023/04/08 09:17:11;;;;;;;53.75;26.63;;;10.20;84.50;;;;;;5024994;28;20018;-89
2023/04/08 09:19:37;;;;;;;47.75;24.60;;;10.10;84.20;;;;;;5024364;28;20024;-84
2023/04/08 09:22:08;;;;;;;55.00;28.38;;;10.30;87.00;;;;;;5025374;28;20029;-86
2023/04/08 09:24:35;;;;;;;33.72;20.65;;;10.30;87.40;;;;;;5043741;28;20022;-84
2023/04/08 09:27:04;;;;;;;37.17;21.38;;;10.40;86.40;;;;;;5040285;28;20025;-87
2023/04/08 09:29:40;;;;;;;42.28;21.95;;;10.30;86.80;;;;;;5057802;28;20029;-88
2023/04/08 09:32:06;;;;;;;42.13;23.35;;;10.20;85.20;;;;;;5034559;28;20021;-87
2023/04/08 09:41:54;;;;;;;41.70;22.42;;;10.30;88.30;;;;;;5053351;28;20063;-89
2023/04/08 09:59:26;;;;;;;;;;;;;;;;;;;;;
2023/04/08 10:09:45;;;;;;;53.10;27.15;;;11.20;83.30;;;;;;4859775;29;20498;-86
2023/04/08 10:16:28;;;;;;;39.95;23.00;;;11.80;80.90;;;;;;4782843;29;20125;-88
2023/04/08 10:22:43;;;;;;;63.42;28.38;;;11.70;76.40;;;;;;4893728;29;20036;-87
2023/04/08 10:25:35;;;;;;;76.00;31.60;;;11.70;78.70;;;;;;4898936;29;20036;-86
2023/04/08 10:39:30;;;;;;;47.08;28.38;;;11.60;81.60;;;;;;4916006;29;20032;-86
2023/04/08 10:46:19;;;;;;;;;;;;;;;;;;;;;
2023/04/08 10:49:36;;;;;;;48.33;29.08;;;11.60;79.10;;;;;;4744530;30;20067;-87
2023/04/08 11:00:06;;;;;;;46.50;27.65;;;11.70;78.30;;;;;;4799366;29;20069;-86
2023/04/08 11:03:33;;;;;;;52.72;29.80;;;12.00;76.90;;;;;;4766351;30;20050;-86
2023/04/08 11:06:03;;;;;;;44.58;27.58;;;12.20;76.80;;;;;;4777151;30;20043;-87
2023/04/08 11:08:35;;;;;;;41.55;26.58;;;12.10;74.80;;;;;;4770002;30;20407;-87
2023/04/08 11:11:39;;;;;;;;;;;;;;;;;;;;;
2023/04/08 11:14:32;;;;;;;41.55;25.80;;;12.30;75.20;;;;;;4752298;30;20046;-86
2023/04/08 11:16:59;;;;;;;41.90;26.30;;;12.20;75.30;;;;;;4769971;30;20085;-86
2023/04/08 11:19:25;;;;;;;41.67;28.75;;;12.00;77.30;;;;;;4798265;29;20038;-87
2023/04/08 11:21:50;;;;;;;44.85;29.55;;;12.00;78.30;;;;;;4843563;29;20097;-87
2023/04/08 11:25:06;;;;;;;;;;;;;;;;;;;;;
2023/04/08 11:27:37;;;;;;;40.50;24.58;;;11.80;77.10;;;;;;4897570;29;20036;-87
2023/04/08 11:30:12;;;;;;;44.28;25.73;;;11.70;77.90;;;;;;4881429;29;20040;-87
2023/04/08 11:32:38;;;;;;;42.17;25.77;;;11.60;78.00;;;;;;4881920;29;20492;-87
2023/04/08 11:35:05;;;;;;;44.55;26.65;;;11.40;78.50;;;;;;4901343;29;20075;-86
2023/04/08 11:37:40;;;;;;;44.42;27.58;;;11.40;79.60;;;;;;4954626;28;20043;-87
2023/04/08 11:40:10;;;;;;;72.43;38.17;;;11.20;78.90;;;;;;4945577;28;20050;-85
2023/04/08 11:42:37;;;;;;;86.68;47.22;;;11.20;79.90;;;;;;4984174;28;20100;-86
2023/04/08 11:45:15;;;;;;;47.08;25.17;;;11.20;80.10;;;;;;5013753;28;20057;-88
2023/04/08 11:48:32;;;;;;;;;;;;;;;;;;;;;
2023/04/08 11:55:03;;;;;;;38.42;23.55;;;11.40;82.80;;;;;;4954091;28;20146;-87
2023/04/08 11:57:44;;;;;;;48.50;25.10;;;11.30;78.50;;;;;;4935072;29;20056;-86
2023/04/08 12:00:12;;;;;;;35.55;22.15;;;11.30;80.60;;;;;;4945731;28;20067;-85
2023/04/08 12:02:40;;;;;;;29.67;19.58;;;11.30;78.80;;;;;;4938048;29;20097;-85
2023/04/08 12:05:28;;;;;;;37.83;22.23;;;11.20;78.50;;;;;;4934787;29;20598;-86
2023/04/08 12:07:53;;;;;;;39.78;23.83;;;11.40;81.10;;;;;;4940239;28;20126;-87
2023/04/08 12:10:25;;;;;;;28.25;19.70;;;11.40;80.70;;;;;;4937656;28;20114;-85
2023/04/08 12:13:21;;;;;;;216.50;95.20;;;11.40;78.40;;;;;;4937950;28;20033;-85
2023/04/08 12:16:07;;;;;;;42.03;26.33;;;11.60;79.40;;;;;;4937273;28;20031;-86
2023/04/08 12:19:13;;;;;;;37.10;24.27;;;11.70;78.40;;;;;;4937996;28;20027;-86
2023/04/08 12:21:40;;;;;;;32.58;20.33;;;11.80;80.50;;;;;;4953424;28;20144;-84
2023/04/08 12:24:06;;;;;;;34.55;20.25;;;11.80;81.40;;;;;;4953728;28;20036;-85
2023/04/08 12:26:32;;;;;;;33.38;21.63;;;11.70;79.70;;;;;;4937878;29;20030;-87
2023/04/08 12:28:58;;;;;;;32.15;20.02;;;11.60;80.00;;;;;;5004315;28;20366;-87
2023/04/08 12:31:23;;;;;;;32.53;19.70;;;11.60;81.20;;;;;;5007522;28;20080;-86
2023/04/08 12:33:49;;;;;;;28.45;19.10;;;11.40;80.80;;;;;;5009847;28;20026;-87
2023/04/08 12:36:32;;;;;;;32.47;21.25;;;11.40;80.30;;;;;;5001555;28;20033;-85
2023/04/08 12:38:58;;;;;;;32.63;19.85;;;11.40;80.80;;;;;;5009751;28;20505;-87
2023/04/08 12:41:26;;;;;;;34.97;21.10;;;11.40;82.10;;;;;;4997492;28;20061;-86
2023/04/08 12:43:59;;;;;;;106.65;49.92;;;11.30;80.40;;;;;;5012454;28;20444;-85
2023/04/08 12:46:31;;;;;;;37.30;22.77;;;11.50;82.40;;;;;;5014253;28;20064;-86
2023/04/08 12:48:57;;;;;;;34.92;20.65;;;11.50;81.20;;;;;;4993567;28;20468;-85
2023/04/08 12:51:31;;;;;;;37.35;21.77;;;11.60;80.40;;;;;;5010219;28;20038;-85
2023/04/08 12:54:03;;;;;;;35.45;21.02;;;11.70;82.50;;;;;;5037803;28;20067;-85
2023/04/08 12:56:38;;;;;;;35.53;21.48;;;11.80;81.50;;;;;;5038943;28;20030;-86
2023/04/08 12:59:04;;;;;;;33.00;19.80;;;11.80;80.00;;;;;;5033154;28;20048;-86
2023/04/08 13:01:30;;;;;;;32.70;19.50;;;11.80;78.20;;;;;;5033812;28;20071;-85
2023/04/08 13:03:55;;;;;;;29.55;19.73;;;11.80;77.10;;;;;;5033890;28;20082;-85
2023/04/08 13:06:26;;;;;;;37.22;23.15;;;11.80;76.90;;;;;;5033683;28;20029;-86
2023/04/08 13:08:58;;;;;;;37.43;23.80;;;11.90;81.20;;;;;;5032423;28;20049;-86
2023/04/08 13:11:24;;;;;;;39.22;23.42;;;11.90;80.40;;;;;;5032286;28;20021;-86
2023/04/08 13:13:49;;;;;;;29.77;19.65;;;12.00;77.20;;;;;;5031616;28;20084;-86
2023/04/08 13:16:15;;;;;;;29.02;19.98;;;12.10;78.10;;;;;;5046331;28;20075;-85
2023/04/08 13:18:44;;;;;;;27.42;18.10;;;12.20;80.10;;;;;;5041501;28;20030;-86
2023/04/08 13:21:10;;;;;;;48.38;28.83;;;12.10;76.10;;;;;;5032161;28;20376;-86
2023/04/08 13:23:36;;;;;;;39.85;23.65;;;12.30;79.20;;;;;;5032165;28;20413;-86
2023/04/08 13:26:02;;;;;;;36.08;22.33;;;12.30;78.70;;;;;;5032060;28;20163;-85
2023/04/08 13:28:27;;;;;;;31.60;19.90;;;12.30;77.30;;;;;;5035077;28;20440;-87
2023/04/08 13:30:54;;;;;;;28.65;19.33;;;12.20;76.50;;;;;;5035720;28;20031;-86
2023/04/08 13:33:23;;;;;;;32.10;20.83;;;12.20;75.30;;;;;;5036904;28;20027;-86
2023/04/08 13:35:48;;;;;;;28.90;19.15;;;12.20;76.70;;;;;;5035691;28;20033;-86
2023/04/08 13:38:14;;;;;;;27.88;18.55;;;12.00;75.70;;;;;;5036043;28;20025;-87
2023/04/08 13:40:40;;;;;;;25.50;17.55;;;12.10;75.30;;;;;;5035511;28;20460;-86
2023/04/08 13:43:07;;;;;;;32.60;22.17;;;12.10;73.50;;;;;;5037128;28;20030;-85
2023/04/08 13:45:35;;;;;;;28.88;19.70;;;12.10;75.00;;;;;;5038029;28;20029;-87
2023/04/08 13:48:01;;;;;;;44.55;23.27;;;12.10;74.30;;;;;;5041885;28;20527;-86
2023/04/08 13:50:27;;;;;;;41.72;23.98;;;12.20;71.90;;;;;;5055605;28;20108;-85
2023/04/08 13:52:52;;;;;;;39.42;24.55;;;12.30;74.60;;;;;;5032898;28;20441;-84
2023/04/08 13:55:18;;;;;;;40.60;24.20;;;12.40;72.80;;;;;;5035082;28;20024;-85
2023/04/08 13:57:44;;;;;;;29.90;20.15;;;12.40;73.00;;;;;;5040326;28;20521;-85
2023/04/08 14:00:10;;;;;;;30.50;19.00;;;12.30;74.00;;;;;;5051610;28;20032;-86
2023/04/08 14:02:36;;;;;;;28.27;18.83;;;12.40;73.20;;;;;;5038557;28;20029;-86
2023/04/08 14:05:03;;;;;;;25.83;17.83;;;12.40;71.50;;;;;;5056412;28;20092;-86
2023/04/08 14:07:31;;;;;;;27.75;17.50;;;12.40;73.10;;;;;;5038527;28;20051;-87